Estación Meteorológica Peña el Pijo (Robertgarden) [ 08/17/18 05:39:29 CEST ]

Fecha Hora Presion(HPa) Temp (°C) Humedad % Rocio (°C) Viento ( m/s) Direccion Lluvia 1Hora(mm) Lluvia 24H(mm) LLuvia Total(mm)
2018-Apr-09 01:01:58 999.700 6.8 70 1.7         190.10
2018-Apr-09 02:01:43 999.400 6.7 71 1.8         190.10
2018-Apr-09 03:10:06 998.500 4.7 74 0.4         190.10
2018-Apr-09 04:02:19 998.200 4.4 78 0.9         190.10
2018-Apr-09 05:04:16 998.200 5.1 80 1.9         190.10
2018-Apr-09 06:02:10 998.400 4.3 76 0.4         190.10
2018-Apr-09 07:01:46 998.400 3.8 77 0.1         190.10
2018-Apr-09 08:02:06 998.900 3.3 73 -1.1         190.10
2018-Apr-09 09:01:41 999.100 4.9 69 -0.3         190.10
2018-Apr-09 10:01:49 999.600 6.6 59 -0.8         190.10
2018-Apr-09 11:01:36 999.600 8.9 52 -0.5 2.4 WNW     190.10
2018-Apr-09 12:01:34 999.700 10.9 44 -0.9 2.4 NNW     190.10
2018-Apr-09 13:01:31 999.600 11.1 41 -1.7 1.8 WNW     190.10
2018-Apr-09 14:01:42 999.800 11.3 38 -2.5 0.1 WNW     190.10
2018-Apr-09 15:01:50 1000.200 10.6 40 -2.5         190.10
2018-Apr-09 16:01:39 999.800 12.7 36 -2.1 5.3 WNW     190.10
2018-Apr-09 17:01:46 999.600 11.4 38 -2.5         190.10
2018-Apr-09 18:01:47 999.700 9.5 39 -3.8 1.3 WNW     190.10
2018-Apr-09 19:01:47 999.700 8.6 41 -4.0 1.2 NW     190.10
2018-Apr-09 20:01:38 999.600 6.4 48 -3.8 2.7 WNW     190.10
2018-Apr-09 21:01:34 1000.100 5.2 56 -2.9         190.10
2018-Apr-09 22:01:40 1000.200 5.1 61 -1.8 4.8 N     190.10
2018-Apr-09 23:01:40 999.700 5.3 65 -0.8 2.8 NNE     190.10

Temperatura Máxima:12°    Temperatura Mínima:
Presión Máxima:1000.200 Hpa    Presión Mínima:998.200 Hpa


Volver